Hovedside
METAR-TAF:

METAR-TAF

Lufthavner :

Sandefjord, Norge

Sandefjord lufthavn. Torp

breddegrad: 59-12N, lengdegrad: 010-16E, høyde over havet: 8 m

Gjeldene værobservasjon

Denne rapporten ble laget for 21 minutter siden, klokken 13:20 UTC
Vind 7 kt fra Nord-nordøst, skiftende mellom Nord og Øst-nordøst
Temperatur -5°C
Luftfuktighet 68%
Trykk 1042 hPa
Sikt 10 km eller mer
Spredte skyer i en høyde av 2500 ft

METAR: ENTO 251320Z 03007KT 360V060 9999 SCT025 M05/M10 Q1042

Tid: 14:41 (13:41 UTC)

Varsel

Varsel gyldig fra 25. klokken 12 UTC til 26. klokken 12 UTC
Vind 8 kt fra Øst-nordøst
Sikt 10 km eller mer
Få skyer i en høyde av 2000 ft

TAF: ENTO 2512/2612 06008KT 9999 FEW020

Værobservasjoner og værvarsel for over 4000 flyplasser (METAR- og TAF-rapporter).

Tilgjengelige stasjoner er representert av de røde og gule prikkene på kartet.

Hold musepekeren over prikken for å se navnet på stasjonen.

Klikk så for å se værobservasjoner og -varsler.

For å forandre kartet kan du klikke på den grønne knappen med svart kryss for å zoome inn, på den grønne knappen med strek for å zoome ut, eller på de grønne pilene for å se tilstøtende kart.


METAR-TAF: